createdAt,value
2023-05-10T08:00:40.746Z,0.83
2023-05-10T08:01:44.879Z,0.70
2023-05-10T08:02:48.252Z,0.95
2023-05-10T08:03:52.288Z,0.77
2023-05-10T08:04:55.252Z,0.90
2023-05-10T08:05:58.186Z,1.00
2023-05-10T08:07:00.947Z,0.80
2023-05-10T08:08:03.814Z,0.80
2023-05-10T08:09:07.282Z,0.82
2023-05-10T08:10:12.302Z,0.68
2023-05-10T08:11:15.328Z,0.73
2023-05-10T08:12:18.311Z,0.45
2023-05-10T08:13:21.084Z,0.80
2023-05-10T08:14:23.988Z,0.80
2023-05-10T08:15:26.866Z,0.50
2023-05-10T08:16:30.165Z,0.57
2023-05-10T08:17:33.157Z,0.70
2023-05-10T08:18:36.441Z,0.82
2023-05-10T08:19:39.288Z,0.80
2023-05-10T08:20:42.302Z,0.57
2023-05-10T08:21:45.112Z,0.88
2023-05-10T08:22:49.930Z,0.63
2023-05-10T08:23:54.184Z,0.70
2023-05-10T08:24:57.139Z,0.90
2023-05-10T08:26:00.752Z,0.60
2023-05-10T08:27:03.940Z,0.88
2023-05-10T08:28:06.842Z,0.70
2023-05-10T08:29:09.972Z,0.63
2023-05-10T08:30:14.205Z,0.73
2023-05-10T08:31:17.337Z,1.02
2023-05-10T08:32:20.299Z,0.88
2023-05-10T08:33:23.493Z,1.08
2023-05-10T08:34:28.583Z,0.82
2023-05-10T08:35:32.247Z,0.93
2023-05-10T08:36:35.086Z,0.95
2023-05-10T08:37:38.153Z,0.88
2023-05-10T08:38:41.110Z,0.90
2023-05-10T08:39:44.126Z,1.17
2023-05-10T08:40:48.871Z,0.93
2023-05-10T08:41:53.764Z,0.77
2023-05-10T08:43:10.598Z,0.98
2023-05-10T08:44:14.111Z,0.93
2023-05-10T08:45:17.967Z,0.80
2023-05-10T08:46:22.729Z,0.85
2023-05-10T08:47:27.014Z,0.70
2023-05-10T08:48:31.658Z,0.98
2023-05-10T08:49:34.884Z,0.93
2023-05-10T08:50:40.151Z,0.82
2023-05-10T08:51:46.120Z,1.02
2023-05-10T08:52:51.994Z,0.65
2023-05-10T08:53:55.625Z,0.85
2023-05-10T08:54:58.746Z,0.73
2023-05-10T08:56:05.357Z,0.70
2023-05-10T08:57:08.803Z,0.82
2023-05-10T08:58:11.658Z,0.90
2023-05-10T08:59:15.478Z,0.43
2023-05-10T09:00:19.812Z,0.70
2023-05-10T09:01:23.704Z,0.55
2023-05-10T09:02:27.028Z,0.55
2023-05-10T09:03:30.991Z,0.82
2023-05-10T09:04:34.262Z,0.70
2023-05-10T09:05:38.366Z,0.70
2023-05-10T09:06:41.493Z,0.90
2023-05-10T09:07:44.621Z,0.88
2023-05-10T09:08:47.813Z,0.65
2023-05-10T09:09:51.902Z,0.70
2023-05-10T09:10:56.502Z,0.50
2023-05-10T09:11:59.605Z,0.65
2023-05-10T09:13:03.073Z,0.85
2023-05-10T09:14:06.229Z,1.00
2023-05-10T09:15:11.048Z,0.77
2023-05-10T09:17:26.866Z,0.65
2023-05-10T09:18:29.993Z,0.85
2023-05-10T09:19:32.839Z,0.85
2023-05-10T09:20:35.693Z,1.08
2023-05-10T09:21:41.785Z,1.00
2023-05-10T09:22:45.401Z,0.82
2023-05-10T09:23:48.924Z,1.20
2023-05-10T09:25:17.949Z,0.95
2023-05-10T09:26:24.441Z,1.17
2023-05-10T09:27:30.155Z,1.00
2023-05-10T09:28:51.055Z,1.10
2023-05-10T09:29:56.219Z,1.42
2023-05-10T09:30:59.188Z,0.90
2023-05-10T09:32:02.086Z,0.85
2023-05-10T09:33:05.152Z,0.65
2023-05-10T09:34:08.195Z,0.70
2023-05-10T09:35:19.809Z,1.00
2023-05-10T09:36:22.695Z,1.10
2023-05-10T09:37:31.232Z,1.35
2023-05-10T09:38:46.935Z,0.70
2023-05-10T09:39:56.230Z,0.80
2023-05-10T09:40:59.186Z,0.80
2023-05-10T09:42:07.622Z,0.63
2023-05-10T09:43:12.028Z,0.80
2023-05-10T09:44:19.008Z,1.00
2023-05-10T09:45:23.030Z,0.77
2023-05-10T09:46:26.157Z,0.90
2023-05-10T09:47:29.384Z,0.95
2023-05-10T09:48:32.605Z,0.88
2023-05-10T09:49:36.225Z,0.80
2023-05-10T09:50:39.020Z,0.80
2023-05-10T09:51:42.369Z,1.25
2023-05-10T09:53:01.474Z,0.75
2023-05-10T09:54:11.871Z,1.10
2023-05-10T09:55:16.519Z,0.75
2023-05-10T09:56:40.146Z,0.90
2023-05-10T09:57:43.134Z,1.02
2023-05-10T09:58:46.307Z,0.80
2023-05-10T09:59:49.516Z,0.90
2023-05-10T10:00:53.568Z,1.02
2023-05-10T10:02:00.981Z,1.05
2023-05-10T10:03:04.896Z,0.68
2023-05-10T10:04:09.863Z,0.90
2023-05-10T10:05:13.238Z,0.70
2023-05-10T10:06:30.219Z,1.13
2023-05-10T10:07:34.146Z,1.15
2023-05-10T10:08:36.947Z,1.23
2023-05-10T10:09:40.297Z,1.55
2023-05-10T10:10:46.493Z,1.10
2023-05-10T10:11:49.666Z,0.98
2023-05-10T10:12:53.122Z,1.23
2023-05-10T10:13:56.535Z,1.08
2023-05-10T10:15:02.409Z,0.90
2023-05-10T10:16:10.358Z,0.77
2023-05-10T10:17:14.122Z,1.20
2023-05-10T10:18:17.427Z,1.63
2023-05-10T10:19:21.806Z,0.98
2023-05-10T10:20:26.282Z,1.08
2023-05-10T10:21:29.767Z,1.17
2023-05-10T10:22:32.700Z,0.88
2023-05-10T10:23:36.492Z,0.98
2023-05-10T10:24:43.689Z,0.68
2023-05-10T10:25:50.054Z,0.73
2023-05-10T10:26:56.634Z,0.98
2023-05-10T10:28:36.879Z,1.20
2023-05-10T10:29:58.692Z,1.00
2023-05-10T10:31:14.708Z,0.98
2023-05-10T10:32:43.926Z,1.10
2023-05-10T10:34:03.330Z,1.42
2023-05-10T10:35:07.933Z,1.20
2023-05-10T10:36:10.921Z,1.42
2023-05-10T10:37:13.779Z,1.20
2023-05-10T10:38:16.661Z,1.02
2023-05-10T10:39:21.873Z,1.10
2023-05-10T10:40:31.904Z,1.10
2023-05-10T10:41:38.860Z,0.75
2023-05-10T10:42:48.538Z,1.13
2023-05-10T10:44:34.624Z,1.00
2023-05-10T10:45:42.161Z,1.23
2023-05-10T10:47:10.675Z,1.00
2023-05-10T10:48:26.502Z,1.08
2023-05-10T10:49:32.766Z,1.20
2023-05-10T10:50:45.876Z,1.23
2023-05-10T10:52:20.690Z,1.35
2023-05-10T10:53:23.573Z,1.20
2023-05-10T10:54:30.006Z,1.67
2023-05-10T10:55:35.628Z,1.52
2023-05-10T10:56:39.134Z,1.02
2023-05-10T10:57:42.136Z,1.40
2023-05-10T10:58:54.959Z,1.33
2023-05-10T11:00:45.155Z,1.10
2023-05-10T11:01:53.297Z,0.77
2023-05-10T11:02:59.935Z,0.80
2023-05-10T11:04:18.614Z,1.30
2023-05-10T11:05:30.357Z,1.00
2023-05-10T11:06:34.790Z,1.42
2023-05-10T11:07:52.340Z,1.33
2023-05-10T11:08:55.903Z,0.95
2023-05-10T11:10:06.185Z,0.90
2023-05-10T11:11:09.431Z,0.85
2023-05-10T11:12:12.236Z,0.70
2023-05-10T11:13:15.164Z,1.00
2023-05-10T11:14:24.038Z,0.80
2023-05-10T11:15:33.808Z,1.10
2023-05-10T11:16:44.663Z,1.00
2023-05-10T11:17:53.285Z,0.75
2023-05-10T11:19:08.931Z,1.10
2023-05-10T11:20:16.256Z,1.10
2023-05-10T11:22:22.145Z,1.52
2023-05-10T11:23:25.362Z,1.38
2023-05-10T11:24:29.691Z,0.93
2023-05-10T11:25:32.748Z,1.20
2023-05-10T11:26:36.893Z,1.35
2023-05-10T11:27:39.871Z,1.27
2023-05-10T11:28:47.238Z,1.13
2023-05-10T11:29:53.363Z,1.30
2023-05-10T11:30:57.079Z,1.20
2023-05-10T11:32:03.526Z,1.33
2023-05-10T11:33:07.686Z,1.48
2023-05-10T11:34:11.162Z,1.45
2023-05-10T11:35:14.288Z,1.85
2023-05-10T11:36:18.199Z,1.35
2023-05-10T11:37:21.133Z,1.42
2023-05-10T11:38:24.091Z,1.48
2023-05-10T11:39:33.651Z,1.42
2023-05-10T11:40:37.456Z,1.73
2023-05-10T11:41:43.784Z,1.70
2023-05-10T11:42:46.811Z,1.33
2023-05-10T11:43:52.007Z,1.55
2023-05-10T11:44:55.282Z,1.55
2023-05-10T11:45:58.329Z,1.83
2023-05-10T11:47:02.285Z,1.65
2023-05-10T11:48:05.742Z,1.48
2023-05-10T11:49:09.251Z,1.50
2023-05-10T11:50:15.210Z,1.42
2023-05-10T11:51:22.624Z,1.48
2023-05-10T11:52:25.514Z,1.65
2023-05-10T11:53:28.637Z,1.30
2023-05-10T11:54:32.326Z,1.65
2023-05-10T11:55:35.610Z,1.83
2023-05-10T11:56:39.754Z,1.60
2023-05-10T11:57:43.768Z,1.95
2023-05-10T11:58:48.298Z,1.10
2023-05-10T11:59:55.988Z,1.20
2023-05-10T12:01:00.347Z,1.40
2023-05-10T12:02:04.571Z,1.60
2023-05-10T12:03:07.756Z,1.23
2023-05-10T12:04:11.112Z,1.30
2023-05-10T12:05:14.953Z,1.15
2023-05-10T12:06:21.870Z,1.13
2023-05-10T12:07:24.667Z,1.35
2023-05-10T12:08:29.399Z,1.02
2023-05-10T12:09:43.116Z,0.82
2023-05-10T12:10:46.845Z,1.25
2023-05-10T12:11:49.571Z,1.35
2023-05-10T12:12:53.885Z,1.05
2023-05-10T12:13:57.778Z,1.10
2023-05-10T12:15:00.757Z,1.10
2023-05-10T12:16:33.936Z,0.85
2023-05-10T12:17:39.924Z,1.50
2023-05-10T12:18:44.205Z,1.40
2023-05-10T12:19:48.404Z,1.60
2023-05-10T12:20:54.533Z,1.45
2023-05-10T12:21:57.425Z,1.88
2023-05-10T12:23:03.150Z,1.25
2023-05-10T12:24:06.497Z,1.40
2023-05-10T12:25:12.627Z,1.42
2023-05-10T12:26:16.157Z,1.63
2023-05-10T12:27:19.104Z,2.13
2023-05-10T12:28:21.959Z,1.70
2023-05-10T12:29:24.705Z,1.50
2023-05-10T12:30:29.162Z,1.73
2023-05-10T12:31:31.962Z,1.35
2023-05-10T12:32:44.666Z,1.30
2023-05-10T12:33:48.574Z,1.10
2023-05-10T12:34:54.605Z,1.48
2023-05-10T12:36:00.613Z,1.15
2023-05-10T12:37:04.760Z,1.17
2023-05-10T12:38:49.045Z,1.35
2023-05-10T12:39:52.152Z,1.15
2023-05-10T12:40:55.113Z,1.42
2023-05-10T12:41:58.323Z,1.17
2023-05-10T12:43:01.330Z,1.20
2023-05-10T12:44:04.527Z,1.30
2023-05-10T12:45:08.859Z,1.17
2023-05-10T12:46:17.951Z,1.02
2023-05-10T12:47:20.837Z,1.30
2023-05-10T12:48:24.052Z,0.95
2023-05-10T12:49:26.816Z,1.23
2023-05-10T12:50:29.736Z,1.33
2023-05-10T12:51:32.660Z,1.17
2023-05-10T12:52:38.352Z,1.45
2023-05-10T12:53:44.219Z,0.95
2023-05-10T12:54:47.970Z,1.20
2023-05-10T12:55:50.803Z,1.10
2023-05-10T12:56:53.667Z,1.02
2023-05-10T12:57:56.512Z,1.50
2023-05-10T12:58:59.392Z,1.20
2023-05-10T13:00:02.246Z,1.30
2023-05-10T13:01:09.708Z,1.15
2023-05-10T13:02:12.703Z,1.45
2023-05-10T13:03:16.913Z,1.33
2023-05-10T13:04:19.687Z,1.77
2023-05-10T13:05:22.660Z,1.40
2023-05-10T13:06:25.720Z,1.77
2023-05-10T13:07:28.709Z,1.50
2023-05-10T13:08:34.646Z,1.63
2023-05-10T13:09:37.932Z,1.52
2023-05-10T13:10:41.520Z,1.83
2023-05-10T13:11:44.546Z,1.98
2023-05-10T13:12:47.331Z,1.70
2023-05-10T13:13:50.210Z,2.50
2023-05-10T13:14:52.957Z,1.40
2023-05-10T13:15:56.157Z,1.27
2023-05-10T13:16:59.096Z,1.50
2023-05-10T13:18:05.183Z,1.02
2023-05-10T13:19:08.259Z,1.50
2023-05-10T13:20:13.515Z,1.10
2023-05-10T13:21:16.513Z,1.33
2023-05-10T13:22:28.718Z,1.45
2023-05-10T13:23:39.606Z,1.65
2023-05-10T13:24:42.442Z,1.42
2023-05-10T13:25:45.402Z,1.38
2023-05-10T13:26:48.614Z,1.23
2023-05-10T13:27:54.018Z,1.40
2023-05-10T13:28:56.943Z,1.52
2023-05-10T13:30:00.561Z,1.67
2023-05-10T13:31:03.465Z,1.80
2023-05-10T13:32:06.541Z,1.60
2023-05-10T13:33:09.696Z,1.65
2023-05-10T13:34:12.502Z,1.70
2023-05-10T13:35:15.456Z,1.63
2023-05-10T13:36:18.299Z,1.48
2023-05-10T13:37:21.367Z,1.52
2023-05-10T13:38:24.279Z,1.35
2023-05-10T13:39:27.159Z,1.55
2023-05-10T13:40:30.313Z,1.10
2023-05-10T13:41:33.479Z,1.23
2023-05-10T13:42:36.238Z,1.40
2023-05-10T13:43:39.154Z,1.42
2023-05-10T13:44:42.031Z,1.30
2023-05-10T13:45:44.915Z,1.20
2023-05-10T13:46:47.838Z,1.38
2023-05-10T13:47:50.923Z,1.73
2023-05-10T13:48:54.071Z,1.60
2023-05-10T13:49:57.294Z,1.48
2023-05-10T13:51:00.124Z,1.63
2023-05-10T13:52:08.026Z,1.48
2023-05-10T13:53:10.836Z,1.58
2023-05-10T13:54:13.893Z,1.50
2023-05-10T13:55:17.304Z,1.48
2023-05-10T13:56:20.376Z,1.77
2023-05-10T13:57:24.244Z,1.13
2023-05-10T13:58:27.897Z,1.15
2023-05-10T13:59:32.872Z,1.42
2023-05-10T14:00:35.772Z,1.02
2023-05-10T14:01:39.070Z,1.30
2023-05-10T14:02:42.080Z,1.10
2023-05-10T14:03:45.104Z,1.60
2023-05-10T14:04:48.195Z,1.27
2023-05-10T14:05:51.048Z,1.20
2023-05-10T14:06:54.143Z,1.45
2023-05-10T14:07:56.967Z,1.38
2023-05-10T14:08:59.831Z,1.23
2023-05-10T14:10:02.912Z,1.35
2023-05-10T14:11:06.856Z,1.38
2023-05-10T14:12:09.637Z,1.23
2023-05-10T14:13:13.420Z,1.42
2023-05-10T14:14:16.159Z,1.60
2023-05-10T14:15:19.492Z,1.00
2023-05-10T14:16:22.640Z,1.10
2023-05-10T14:17:25.603Z,1.35
2023-05-10T14:18:28.864Z,1.40
2023-05-10T14:19:33.749Z,1.10
2023-05-10T14:20:36.759Z,1.33
2023-05-10T14:21:39.874Z,1.60
2023-05-10T14:22:42.654Z,1.30
2023-05-10T14:23:45.614Z,1.15
2023-05-10T14:24:48.455Z,1.60
2023-05-10T14:25:54.474Z,1.25
2023-05-10T14:26:57.234Z,1.85
2023-05-10T14:28:00.122Z,1.65
2023-05-10T14:29:06.306Z,1.73
2023-05-10T14:30:13.916Z,1.63
2023-05-10T14:31:18.182Z,1.35
2023-05-10T14:32:22.411Z,1.80
2023-05-10T14:33:25.192Z,1.58
2023-05-10T14:34:28.008Z,1.50
2023-05-10T14:35:32.348Z,1.15
2023-05-10T14:36:35.288Z,1.67
2023-05-10T14:37:38.251Z,1.35
2023-05-10T14:38:41.767Z,1.52
2023-05-10T14:39:44.509Z,1.20
2023-05-10T14:40:52.694Z,1.30
2023-05-10T14:41:55.744Z,1.40
2023-05-10T14:42:58.671Z,1.30
2023-05-10T14:44:01.839Z,1.40
2023-05-10T14:45:05.861Z,2.00
2023-05-10T14:46:08.813Z,1.33
2023-05-10T14:47:12.438Z,1.92
2023-05-10T14:48:18.465Z,1.75
2023-05-10T14:49:23.956Z,1.30
2023-05-10T14:50:36.526Z,1.58
2023-05-10T14:51:40.282Z,1.88
2023-05-10T14:52:43.107Z,1.85
2023-05-10T14:53:46.038Z,1.63
2023-05-10T14:54:48.865Z,1.55
2023-05-10T14:55:51.729Z,2.13
2023-05-10T14:56:54.509Z,1.55
2023-05-10T14:57:57.452Z,1.48
2023-05-10T14:59:02.647Z,1.02
2023-05-10T15:00:06.534Z,1.58
2023-05-10T15:01:10.074Z,1.83
2023-05-10T15:02:13.848Z,1.52
2023-05-10T15:03:17.264Z,1.70
2023-05-10T15:04:20.404Z,1.65
2023-05-10T15:05:25.170Z,1.90
2023-05-10T15:06:35.746Z,1.40
2023-05-10T15:07:38.557Z,1.52
2023-05-10T15:08:41.540Z,1.40
2023-05-10T15:09:44.401Z,1.90
2023-05-10T15:10:48.863Z,1.63
2023-05-10T15:11:51.818Z,1.40
2023-05-10T15:12:54.892Z,1.30
2023-05-10T15:13:57.878Z,1.30
2023-05-10T15:15:00.816Z,1.40
2023-05-10T15:16:03.700Z,1.25
2023-05-10T15:17:08.329Z,2.35
2023-05-10T15:18:11.336Z,1.50
2023-05-10T15:19:14.659Z,1.88
2023-05-10T15:20:17.704Z,1.25
2023-05-10T15:21:20.717Z,1.45
2023-05-10T15:22:23.709Z,1.63
2023-05-10T15:23:27.276Z,1.45
2023-05-10T15:24:30.384Z,1.27
2023-05-10T15:25:36.054Z,1.10
2023-05-10T15:26:39.030Z,1.27
2023-05-10T15:27:42.132Z,1.30
2023-05-10T15:28:45.072Z,1.30
2023-05-10T15:29:48.013Z,1.40
2023-05-10T15:30:51.577Z,1.23
2023-05-10T15:31:54.634Z,1.45
2023-05-10T15:32:57.974Z,1.70
2023-05-10T15:34:01.087Z,1.23
2023-05-10T15:35:04.176Z,1.38
2023-05-10T15:36:07.812Z,1.60
2023-05-10T15:37:11.157Z,1.30
2023-05-10T15:38:14.159Z,1.55
2023-05-10T15:39:17.060Z,1.42
2023-05-10T15:40:20.639Z,1.58
2023-05-10T15:41:23.921Z,1.40
2023-05-10T15:42:26.935Z,1.33
2023-05-10T15:43:29.715Z,1.52
2023-05-10T15:44:32.579Z,1.40
2023-05-10T15:45:37.479Z,1.70
2023-05-10T15:46:40.888Z,1.55
2023-05-10T15:47:45.354Z,1.73
2023-05-10T15:48:48.394Z,1.63
2023-05-10T15:49:51.332Z,1.52
2023-05-10T15:50:54.266Z,1.48
2023-05-10T15:51:57.145Z,1.48
2023-05-10T15:53:00.045Z,1.98
2023-05-10T15:54:08.435Z,1.77
2023-05-10T15:55:14.928Z,1.92
2023-05-10T15:56:18.169Z,1.73
2023-05-10T15:57:21.022Z,1.60
2023-05-10T15:58:23.817Z,1.63
2023-05-10T15:59:26.842Z,1.83
2023-05-10T16:00:29.882Z,1.35
2023-05-10T16:01:33.433Z,1.50
2023-05-10T16:02:36.814Z,1.42
2023-05-10T16:03:40.150Z,1.48
2023-05-10T16:04:44.649Z,1.50
2023-05-10T16:05:47.573Z,1.58
2023-05-10T16:06:50.581Z,1.60
2023-05-10T16:07:53.469Z,1.80
2023-05-10T16:08:56.383Z,2.03
2023-05-10T16:09:59.456Z,2.13
2023-05-10T16:11:02.397Z,2.00
2023-05-10T16:12:05.607Z,2.03
2023-05-10T16:13:08.876Z,1.90
2023-05-10T16:14:12.015Z,2.00
2023-05-10T16:15:15.155Z,1.77
2023-05-10T16:16:18.277Z,2.40
2023-05-10T16:17:21.202Z,2.50
2023-05-10T16:18:24.746Z,2.30
2023-05-10T16:19:29.777Z,2.13
2023-05-10T16:20:33.481Z,2.40
2023-05-10T16:21:36.268Z,2.28
2023-05-10T16:22:39.287Z,2.50
2023-05-10T16:23:42.291Z,2.60
2023-05-10T16:24:45.246Z,2.03
2023-05-10T16:25:48.015Z,1.85
2023-05-10T16:26:50.864Z,2.50
2023-05-10T16:27:53.631Z,2.58
2023-05-10T16:28:56.707Z,2.53
2023-05-10T16:29:59.960Z,2.15
2023-05-10T16:31:02.992Z,2.63
2023-05-10T16:32:06.080Z,2.50
2023-05-10T16:33:09.167Z,2.50
2023-05-10T16:34:11.973Z,2.70
2023-05-10T16:35:15.067Z,2.30
2023-05-10T16:36:17.932Z,2.30
2023-05-10T16:37:21.160Z,3.22
2023-05-10T16:38:23.993Z,2.28
2023-05-10T16:39:26.894Z,2.50
2023-05-10T16:40:29.841Z,2.67
2023-05-10T16:41:36.232Z,2.50
2023-05-10T16:42:39.162Z,2.60
2023-05-10T16:43:42.000Z,3.13
2023-05-10T16:44:44.751Z,2.53
2023-05-10T16:45:47.703Z,3.03
2023-05-10T16:46:50.557Z,2.85
2023-05-10T16:47:56.440Z,2.75
2023-05-10T16:49:00.385Z,2.95
2023-05-10T16:50:07.952Z,2.80
2023-05-10T16:52:13.406Z,2.72
2023-05-10T16:53:16.632Z,2.80
2023-05-10T16:54:20.463Z,3.10
2023-05-10T16:55:26.224Z,2.80
2023-05-10T16:56:29.532Z,2.95
2023-05-10T16:57:33.281Z,3.22
2023-05-10T16:58:36.053Z,2.75
2023-05-10T16:59:39.256Z,2.83
2023-05-10T17:00:42.322Z,2.72
2023-05-10T17:01:46.397Z,3.05
2023-05-10T17:02:49.525Z,3.20
2023-05-10T17:03:52.571Z,3.08
2023-05-10T17:04:56.462Z,3.08
2023-05-10T17:05:59.669Z,3.10
2023-05-10T17:07:02.465Z,3.00
2023-05-10T17:08:05.511Z,2.88
2023-05-10T17:09:08.335Z,3.10
2023-05-10T17:10:11.724Z,3.22
2023-05-10T17:11:14.574Z,3.50
2023-05-10T17:12:17.556Z,2.95
2023-05-10T17:13:20.370Z,3.33
2023-05-10T17:15:43.435Z,3.20
2023-05-10T17:17:00.554Z,3.17
2023-05-10T17:18:04.077Z,3.17
2023-05-10T17:19:07.411Z,3.00
2023-05-10T17:20:10.794Z,3.20
2023-05-10T17:21:13.755Z,3.38
2023-05-10T17:22:16.651Z,3.92
2023-05-10T17:23:19.610Z,4.32
2023-05-10T17:24:22.543Z,3.30
2023-05-10T17:25:25.560Z,3.17
2023-05-10T17:26:30.010Z,3.38
2023-05-10T17:27:33.107Z,3.97
2023-05-10T17:28:36.023Z,3.92
2023-05-10T17:29:39.115Z,3.70
2023-05-10T17:30:42.013Z,3.40
2023-05-10T17:31:45.045Z,3.83
2023-05-10T17:32:47.878Z,4.03
2023-05-10T17:33:50.835Z,4.00
2023-05-10T17:34:53.718Z,3.78
2023-05-10T17:35:57.099Z,3.88
2023-05-10T17:37:00.036Z,3.50
2023-05-10T17:38:03.009Z,3.63
2023-05-10T17:39:06.179Z,4.07
2023-05-10T17:40:10.468Z,3.67
2023-05-10T17:41:14.466Z,4.20
2023-05-10T17:42:19.167Z,4.30
2023-05-10T17:43:22.282Z,3.92
2023-05-10T17:44:26.282Z,4.35
2023-05-10T17:45:29.390Z,4.43
2023-05-10T17:46:33.211Z,3.83
2023-05-10T17:47:36.077Z,4.55
2023-05-10T17:48:39.423Z,4.43
2023-05-10T17:49:42.808Z,4.32
2023-05-10T17:50:45.750Z,4.68
2023-05-10T17:51:48.556Z,4.72
2023-05-10T17:52:51.605Z,3.95
2023-05-10T17:53:54.731Z,4.97
2023-05-10T17:54:57.789Z,4.85
2023-05-10T17:56:01.796Z,4.82
2023-05-10T17:57:05.042Z,4.88
2023-05-10T17:58:08.159Z,4.53
2023-05-10T17:59:11.159Z,4.78
2023-05-10T18:00:14.715Z,5.88
2023-05-10T18:01:17.639Z,5.05
2023-05-10T18:02:20.659Z,5.00
2023-05-10T18:03:24.178Z,5.13
2023-05-10T18:04:26.996Z,4.90
2023-05-10T18:05:30.030Z,5.00
2023-05-10T18:06:37.022Z,5.18
2023-05-10T18:07:40.281Z,4.82
2023-05-10T18:08:43.158Z,4.95
2023-05-10T18:09:46.242Z,5.10
2023-05-10T18:10:51.765Z,4.60
2023-05-10T18:11:54.666Z,4.95
2023-05-10T18:12:58.823Z,5.00
2023-05-10T18:14:01.832Z,5.47
2023-05-10T18:15:04.856Z,5.70
2023-05-10T18:16:13.636Z,5.03
2023-05-10T18:17:16.755Z,4.68
2023-05-10T18:18:19.941Z,4.97
2023-05-10T18:19:27.786Z,4.95
2023-05-10T18:20:31.289Z,5.88
2023-05-10T18:21:34.187Z,4.68
2023-05-10T18:22:37.140Z,5.50
2023-05-10T18:23:39.925Z,5.15
2023-05-10T18:24:43.096Z,5.75
2023-05-10T18:25:45.950Z,4.97
2023-05-10T18:26:48.879Z,4.85
2023-05-10T18:27:51.976Z,5.38
2023-05-10T18:28:59.103Z,5.00
2023-05-10T18:30:02.841Z,4.85
2023-05-10T18:31:09.314Z,4.65
2023-05-10T18:32:12.182Z,5.25
2023-05-10T18:33:15.099Z,5.28
2023-05-10T18:34:19.142Z,5.32
2023-05-10T18:35:22.247Z,5.00
2023-05-10T18:36:25.253Z,5.35
2023-05-10T18:37:28.217Z,4.60
2023-05-10T18:38:31.328Z,4.53
2023-05-10T18:39:34.658Z,4.43
2023-05-10T18:40:37.574Z,4.72
2023-05-10T18:41:40.594Z,4.95
2023-05-10T18:42:43.417Z,4.88
2023-05-10T18:43:46.336Z,4.70
2023-05-10T18:44:49.149Z,5.10
2023-05-10T18:45:52.797Z,4.28
2023-05-10T18:46:55.795Z,4.22
2023-05-10T18:47:58.698Z,4.57
2023-05-10T18:49:02.825Z,4.47
2023-05-10T18:50:06.555Z,5.00
2023-05-10T18:51:09.752Z,4.25
2023-05-10T18:52:13.232Z,4.75
2023-05-10T18:53:16.065Z,4.68
2023-05-10T18:54:19.197Z,3.90
2023-05-10T18:55:22.065Z,4.78
2023-05-10T18:56:25.066Z,4.80
2023-05-10T18:57:28.076Z,4.80
2023-05-10T18:58:32.110Z,4.53
2023-05-10T18:59:34.880Z,4.25
2023-05-10T19:00:37.759Z,4.68
2023-05-10T19:01:42.017Z,4.63
2023-05-10T19:02:45.249Z,5.10
2023-05-10T19:03:48.160Z,4.80
2023-05-10T19:04:51.002Z,4.20
2023-05-10T19:05:53.878Z,4.18
2023-05-10T19:06:57.005Z,4.45
2023-05-10T19:07:59.978Z,4.85
2023-05-10T19:09:03.394Z,4.13
2023-05-10T19:10:06.862Z,5.10
2023-05-10T19:11:09.722Z,4.07
2023-05-10T19:12:17.923Z,4.07
2023-05-10T19:13:20.945Z,4.63
2023-05-10T19:14:25.447Z,4.60
2023-05-10T19:15:28.688Z,4.70
2023-05-10T19:16:31.602Z,4.50
2023-05-10T19:17:36.784Z,4.45
2023-05-10T19:18:40.361Z,4.80
2023-05-10T19:19:44.437Z,4.00
2023-05-10T19:20:47.441Z,3.92
2023-05-10T19:21:50.643Z,4.95
2023-05-10T19:23:08.391Z,4.50
2023-05-10T19:24:13.102Z,4.55
2023-05-10T19:25:21.761Z,4.70
2023-05-10T19:26:24.915Z,3.83
2023-05-10T19:27:28.226Z,4.13
2023-05-10T19:28:34.091Z,4.47
2023-05-10T19:29:37.056Z,4.45
2023-05-10T19:30:40.128Z,4.35
2023-05-10T19:31:44.186Z,4.70
2023-05-10T19:32:48.266Z,4.05
2023-05-10T19:33:51.542Z,4.72
2023-05-10T19:34:54.713Z,4.78
2023-05-10T19:35:57.770Z,4.40
2023-05-10T19:37:01.264Z,4.53
2023-05-10T19:38:04.301Z,5.25
2023-05-10T19:39:07.473Z,4.75
2023-05-10T19:40:10.734Z,4.93
2023-05-10T19:41:13.840Z,4.65
2023-05-10T19:42:16.832Z,3.97
2023-05-10T19:43:20.484Z,4.30
2023-05-10T19:44:24.674Z,4.53
2023-05-10T19:45:27.892Z,4.90
2023-05-10T19:46:31.717Z,4.40
2023-05-10T19:47:36.123Z,5.15
2023-05-10T19:48:39.231Z,4.38
2023-05-10T19:49:42.340Z,4.93
2023-05-10T19:50:45.441Z,4.82
2023-05-10T19:51:49.067Z,4.75
2023-05-10T19:52:52.643Z,4.78
2023-05-10T19:53:55.715Z,4.68
2023-05-10T19:54:58.721Z,4.78
2023-05-10T19:56:05.597Z,4.93
2023-05-10T19:57:08.557Z,4.30
2023-05-10T19:58:11.656Z,4.07
2023-05-10T19:59:14.864Z,4.32
2023-05-10T20:00:18.098Z,4.72
2023-05-10T20:01:21.196Z,4.25
2023-05-10T20:02:24.332Z,4.85
2023-05-10T20:03:27.575Z,4.50
2023-05-10T20:04:30.834Z,4.25
2023-05-10T20:05:33.804Z,4.28
2023-05-10T20:06:36.921Z,4.57
2023-05-10T20:07:41.469Z,3.67
2023-05-10T20:08:44.647Z,4.45
2023-05-10T20:09:47.778Z,4.63
2023-05-10T20:10:50.943Z,4.85
2023-05-10T20:11:54.004Z,4.05
2023-05-10T20:12:58.901Z,4.43
2023-05-10T20:14:01.986Z,4.53
2023-05-10T20:15:07.907Z,4.40
2023-05-10T20:16:10.909Z,4.07
2023-05-10T20:17:14.072Z,4.53
2023-05-10T20:18:17.060Z,4.60
2023-05-10T20:19:20.245Z,4.57
2023-05-10T20:20:23.831Z,4.32
2023-05-10T20:21:27.115Z,4.18
2023-05-10T20:22:30.253Z,4.43
2023-05-10T20:23:33.362Z,4.18
2023-05-10T20:24:36.619Z,4.18
2023-05-10T20:25:39.711Z,4.35
2023-05-10T20:26:42.678Z,4.60
2023-05-10T20:27:46.010Z,4.53
2023-05-10T20:28:48.976Z,4.03
2023-05-10T20:29:51.981Z,4.28
2023-05-10T20:30:56.111Z,4.93
2023-05-10T20:31:59.627Z,4.13
2023-05-10T20:33:04.496Z,4.05
2023-05-10T20:34:07.992Z,4.10
2023-05-10T20:35:12.170Z,4.53
2023-05-10T20:36:15.361Z,4.15
2023-05-10T20:37:18.394Z,4.22
2023-05-10T20:38:21.619Z,4.20
2023-05-10T20:39:24.559Z,3.83
2023-05-10T20:40:27.771Z,3.80
2023-05-10T20:41:30.729Z,4.28
2023-05-10T20:42:33.987Z,4.53
2023-05-10T20:43:37.101Z,4.22
2023-05-10T20:44:40.138Z,4.18
2023-05-10T20:45:43.095Z,4.13
2023-05-10T20:46:48.456Z,5.05
2023-05-10T20:47:51.491Z,4.47
2023-05-10T20:48:54.921Z,3.90
2023-05-10T20:49:57.816Z,4.53
2023-05-10T20:51:02.528Z,3.97
2023-05-10T20:52:05.932Z,4.43
2023-05-10T20:53:09.252Z,3.80
2023-05-10T20:54:12.276Z,4.03
2023-05-10T20:55:15.538Z,4.22
2023-05-10T20:56:19.352Z,4.10
2023-05-10T20:57:22.615Z,4.05
2023-05-10T20:58:25.651Z,3.90
2023-05-10T20:59:29.561Z,3.97
2023-05-10T21:00:32.653Z,4.03
2023-05-10T21:01:35.880Z,4.47
2023-05-10T21:02:39.110Z,4.38
2023-05-10T21:03:42.257Z,3.83
2023-05-10T21:04:45.622Z,4.50
2023-05-10T21:05:48.683Z,4.43
2023-05-10T21:06:52.208Z,4.32
2023-05-10T21:07:55.462Z,4.20
2023-05-10T21:08:58.547Z,3.80
2023-05-10T21:10:01.626Z,3.70
2023-05-10T21:11:05.906Z,3.45
2023-05-10T21:12:10.210Z,4.03
2023-05-10T21:13:13.456Z,4.25
2023-05-10T21:14:16.698Z,4.03
2023-05-10T21:15:19.731Z,4.20
2023-05-10T21:16:22.975Z,3.95
2023-05-10T21:17:28.499Z,3.92
2023-05-10T21:18:31.610Z,4.28
2023-05-10T21:19:34.810Z,4.35
2023-05-10T21:20:37.932Z,4.20
2023-05-10T21:21:40.939Z,4.03
2023-05-10T21:22:45.781Z,3.95
2023-05-10T21:23:48.988Z,3.95
2023-05-10T21:24:52.111Z,3.85
2023-05-10T21:25:55.586Z,3.70
2023-05-10T21:26:58.617Z,3.90
2023-05-10T21:28:01.617Z,4.13
2023-05-10T21:29:05.124Z,3.78
2023-05-10T21:30:08.698Z,4.10
2023-05-10T21:31:12.447Z,3.63
2023-05-10T21:32:15.584Z,4.28
2023-05-10T21:33:18.621Z,3.70
2023-05-10T21:34:21.650Z,3.83
2023-05-10T21:35:24.953Z,3.83
2023-05-10T21:36:28.231Z,3.70
2023-05-10T21:37:31.309Z,3.65
2023-05-10T21:38:34.477Z,4.38
2023-05-10T21:39:37.565Z,4.13
2023-05-10T21:40:40.816Z,3.58
2023-05-10T21:41:44.007Z,3.88
2023-05-10T21:42:50.138Z,3.30
2023-05-10T21:43:53.319Z,3.33
2023-05-10T21:44:56.604Z,4.20
2023-05-10T21:45:59.935Z,3.60
2023-05-10T21:47:03.016Z,3.33
2023-05-10T21:48:06.121Z,3.58
2023-05-10T21:49:09.129Z,3.70
2023-05-10T21:50:12.818Z,4.43
2023-05-10T21:51:15.907Z,3.90
2023-05-10T21:52:19.032Z,3.72
2023-05-10T21:53:22.643Z,3.50
2023-05-10T21:54:25.738Z,4.32
2023-05-10T21:55:28.714Z,4.07
2023-05-10T21:56:31.945Z,3.78
2023-05-10T21:57:34.931Z,3.97
2023-05-10T21:58:38.114Z,3.60
2023-05-10T21:59:41.090Z,3.60
2023-05-10T22:00:44.213Z,3.67
2023-05-10T22:01:47.515Z,3.22
2023-05-10T22:02:51.038Z,3.70
2023-05-10T22:03:54.077Z,3.60
2023-05-10T22:04:57.121Z,3.88
2023-05-10T22:06:00.057Z,3.85
2023-05-10T22:07:03.193Z,3.53
2023-05-10T22:08:07.228Z,3.33
2023-05-10T22:09:10.470Z,3.78
2023-05-10T22:10:13.417Z,3.47
2023-05-10T22:11:16.531Z,3.38
2023-05-10T22:12:19.484Z,3.08
2023-05-10T22:13:22.596Z,3.33
2023-05-10T22:14:25.608Z,3.78
2023-05-10T22:15:28.736Z,3.65
2023-05-10T22:16:31.902Z,3.13
2023-05-10T22:17:35.115Z,3.63
2023-05-10T22:18:38.181Z,3.03
2023-05-10T22:19:41.278Z,3.20
2023-05-10T22:20:47.046Z,3.67
2023-05-10T22:21:50.182Z,3.47
2023-05-10T22:22:55.438Z,3.40